RUK9XM EGPH-EGSS
Flight info
| Callsign | RUK9XM |
|---|---|
| Flight time | 0h 55m |
| Altitude | 37000 |
| Route | GOSAM P600 FENIK L612 NAVSO DCT AKOMU DCT VAMEB UL612 LISTO |
| Aircraft | B738/M-SDE2E3FGHIRWXY/LB1 |
Departure
| Time | 2026-04-21 19:10 |
|---|---|
| Airport | Edinburgh Airport (EGPH) |
Arrival
| Time | 2026-04-21 20:05 |
|---|---|
| Airport | London Stansted Airport (EGSS) |
| Time | Latitude | Longitude | Altitude | Speed | Heading |
|---|---|---|---|---|---|
| 2026-04-21 18:33 | 55.94753 | -3.35487 | 144 ft | 0 kts | 209° |
| 2026-04-21 18:57 | 55.94760 | -3.35480 | 144 ft | 2 kts | 209° |
| 2026-04-21 18:58 | 55.94774 | -3.35465 | 144 ft | 3 kts | 216° |
| 2026-04-21 18:58 | 55.94788 | -3.35440 | 144 ft | 3 kts | 239° |
| 2026-04-21 18:58 | 55.94794 | -3.35406 | 144 ft | 3 kts | 262° |
| 2026-04-21 18:58 | 55.94793 | -3.35370 | 144 ft | 3 kts | 283° |
| 2026-04-21 18:59 | 55.94793 | -3.35365 | 144 ft | 0 kts | 284° |
| 2026-04-21 19:03 | 55.94798 | -3.35398 | 144 ft | 7 kts | 284° |
| 2026-04-21 19:03 | 55.94832 | -3.35524 | 144 ft | 15 kts | 298° |
| 2026-04-21 19:03 | 55.94892 | -3.35720 | 144 ft | 20 kts | 298° |
| 2026-04-21 19:03 | 55.94962 | -3.35881 | 144 ft | 4 kts | 8° |
| 2026-04-21 19:04 | 55.94998 | -3.35848 | 144 ft | 8 kts | 28° |
| 2026-04-21 19:04 | 55.95046 | -3.35857 | 144 ft | 8 kts | 308° |
| 2026-04-21 19:04 | 55.95081 | -3.35965 | 144 ft | 12 kts | 298° |
| 2026-04-21 19:04 | 55.95120 | -3.36128 | 144 ft | 16 kts | 288° |
| 2026-04-21 19:05 | 55.95121 | -3.36326 | 144 ft | 17 kts | 238° |
| 2026-04-21 19:05 | 55.95051 | -3.36533 | 144 ft | 21 kts | 239° |
| 2026-04-21 19:05 | 55.94967 | -3.36782 | 144 ft | 25 kts | 239° |
| 2026-04-21 19:05 | 55.94871 | -3.37068 | 144 ft | 29 kts | 239° |
| 2026-04-21 19:06 | 55.94764 | -3.37385 | 144 ft | 31 kts | 239° |
| 2026-04-21 19:06 | 55.94651 | -3.37721 | 144 ft | 32 kts | 239° |
| 2026-04-21 19:06 | 55.94549 | -3.38025 | 144 ft | 26 kts | 239° |
| 2026-04-21 19:06 | 55.94463 | -3.38279 | 144 ft | 23 kts | 239° |
| 2026-04-21 19:07 | 55.94385 | -3.38511 | 144 ft | 20 kts | 239° |
| 2026-04-21 19:07 | 55.94335 | -3.38658 | 144 ft | 8 kts | 239° |
| 2026-04-21 19:07 | 55.94311 | -3.38729 | 144 ft | 7 kts | 239° |
| 2026-04-21 19:07 | 55.94287 | -3.38810 | 144 ft | 8 kts | 256° |
| 2026-04-21 19:08 | 55.94309 | -3.38884 | 144 ft | 6 kts | 328° |
| 2026-04-21 19:08 | 55.94351 | -3.38929 | 144 ft | 8 kts | 329° |
| 2026-04-21 19:08 | 55.94400 | -3.38979 | 144 ft | 8 kts | 341° |
| 2026-04-21 19:08 | 55.94425 | -3.38958 | 144 ft | 4 kts | 52° |
| 2026-04-21 19:09 | 55.94443 | -3.38909 | 144 ft | 3 kts | 59° |
| 2026-04-21 19:09 | 55.94445 | -3.38902 | 144 ft | 0 kts | 59° |
| 2026-04-21 19:09 | 55.94493 | -3.38759 | 144 ft | 40 kts | 59° |
| 2026-04-21 19:09 | 55.94760 | -3.37970 | 144 ft | 107 kts | 59° |
| 2026-04-21 19:10 | 55.95221 | -3.36601 | 403 ft | 142 kts | 59° |
| 2026-04-21 19:10 | 55.95760 | -3.35001 | 1066 ft | 158 kts | 60° |
| 2026-04-21 19:10 | 55.96407 | -3.33262 | 1703 ft | 178 kts | 51° |
| 2026-04-21 19:10 | 55.97364 | -3.31741 | 2381 ft | 195 kts | 41° |
| 2026-04-21 19:11 | 55.98495 | -3.30195 | 3075 ft | 211 kts | 40° |
| 2026-04-21 19:11 | 55.99710 | -3.28600 | 3737 ft | 226 kts | 38° |
| 2026-04-21 19:11 | 56.01204 | -3.27583 | 4391 ft | 235 kts | 13° |
| 2026-04-21 19:11 | 56.02798 | -3.27967 | 5089 ft | 235 kts | 344° |
| 2026-04-21 19:12 | 56.04100 | -3.29690 | 5849 ft | 233 kts | 314° |
| 2026-04-21 19:12 | 56.04780 | -3.32302 | 6529 ft | 235 kts | 283° |
| 2026-04-21 19:12 | 56.04758 | -3.35231 | 7161 ft | 241 kts | 261° |
| 2026-04-21 19:12 | 56.04399 | -3.38174 | 7850 ft | 247 kts | 255° |
| 2026-04-21 19:13 | 56.03927 | -3.41213 | 8575 ft | 258 kts | 252° |
| 2026-04-21 19:13 | 56.03400 | -3.44317 | 9306 ft | 268 kts | 251° |
| 2026-04-21 19:13 | 56.02834 | -3.47568 | 10049 ft | 278 kts | 251° |
| 2026-04-21 19:13 | 56.02245 | -3.50918 | 10786 ft | 293 kts | 251° |
| 2026-04-21 19:14 | 56.01611 | -3.54519 | 11531 ft | 311 kts | 251° |
| 2026-04-21 19:14 | 56.00941 | -3.58323 | 12275 ft | 328 kts | 251° |
| 2026-04-21 19:14 | 56.00246 | -3.62260 | 13006 ft | 343 kts | 251° |
| 2026-04-21 19:14 | 55.99507 | -3.66439 | 13748 ft | 357 kts | 251° |
| 2026-04-21 19:15 | 55.98752 | -3.70695 | 14474 ft | 369 kts | 251° |
| 2026-04-21 19:15 | 55.97941 | -3.75123 | 15209 ft | 379 kts | 248° |
| 2026-04-21 19:15 | 55.96625 | -3.79236 | 15942 ft | 384 kts | 229° |
| 2026-04-21 19:15 | 55.94665 | -3.82415 | 16675 ft | 385 kts | 211° |
| 2026-04-21 19:16 | 55.92219 | -3.84396 | 17422 ft | 386 kts | 194° |
| 2026-04-21 19:16 | 55.89574 | -3.85304 | 18176 ft | 395 kts | 184° |
| 2026-04-21 19:16 | 55.86782 | -3.85664 | 18932 ft | 405 kts | 179° |
| 2026-04-21 19:16 | 55.83947 | -3.85735 | 19675 ft | 414 kts | 177° |
| 2026-04-21 19:17 | 55.78081 | -3.85489 | 21148 ft | 427 kts | 175° |
| 2026-04-21 19:17 | 55.75132 | -3.85281 | 21867 ft | 432 kts | 175° |
| 2026-04-21 19:17 | 55.72099 | -3.85071 | 22599 ft | 435 kts | 176° |
| 2026-04-21 19:18 | 55.69098 | -3.84867 | 23319 ft | 437 kts | 176° |
| 2026-04-21 19:18 | 55.66015 | -3.84656 | 24055 ft | 438 kts | 176° |
| 2026-04-21 19:18 | 55.62989 | -3.84443 | 24776 ft | 438 kts | 176° |
| 2026-04-21 19:18 | 55.59922 | -3.84211 | 25506 ft | 438 kts | 176° |
| 2026-04-21 19:19 | 55.56873 | -3.83969 | 26232 ft | 436 kts | 176° |
| 2026-04-21 19:19 | 55.53895 | -3.83750 | 26938 ft | 434 kts | 177° |
| 2026-04-21 19:19 | 55.50828 | -3.83525 | 27581 ft | 440 kts | 177° |
| 2026-04-21 19:19 | 55.47748 | -3.83285 | 28189 ft | 447 kts | 177° |
| 2026-04-21 19:20 | 55.44647 | -3.83031 | 28787 ft | 453 kts | 177° |
| 2026-04-21 19:20 | 55.41461 | -3.82768 | 29391 ft | 458 kts | 177° |
| 2026-04-21 19:20 | 55.38243 | -3.82510 | 29996 ft | 462 kts | 178° |
| 2026-04-21 19:20 | 55.35001 | -3.82268 | 30600 ft | 465 kts | 178° |
| 2026-04-21 19:21 | 55.31790 | -3.82029 | 31196 ft | 467 kts | 179° |
| 2026-04-21 19:21 | 55.28528 | -3.81777 | 31799 ft | 468 kts | 177° |
| 2026-04-21 19:21 | 55.25340 | -3.80837 | 32404 ft | 470 kts | 167° |
| 2026-04-21 19:21 | 55.22192 | -3.79142 | 33026 ft | 470 kts | 161° |
| 2026-04-21 19:22 | 55.19141 | -3.77079 | 33641 ft | 470 kts | 159° |
| 2026-04-21 19:22 | 55.16169 | -3.74840 | 34249 ft | 469 kts | 157° |
| 2026-04-21 19:22 | 55.13181 | -3.72466 | 34859 ft | 468 kts | 156° |
| 2026-04-21 19:22 | 55.10254 | -3.70079 | 35456 ft | 466 kts | 155° |
| 2026-04-21 19:23 | 55.07333 | -3.67673 | 36053 ft | 464 kts | 155° |
| 2026-04-21 19:23 | 55.04416 | -3.65262 | 36653 ft | 462 kts | 155° |
| 2026-04-21 19:23 | 55.01503 | -3.62860 | 37253 ft | 459 kts | 155° |
| 2026-04-21 19:23 | 54.98619 | -3.60468 | 37455 ft | 466 kts | 154° |
| 2026-04-21 19:24 | 54.92676 | -3.55471 | 37502 ft | 480 kts | 154° |
| 2026-04-21 19:24 | 54.86662 | -3.50443 | 37480 ft | 479 kts | 155° |
| 2026-04-21 19:25 | 54.80658 | -3.45523 | 37476 ft | 476 kts | 155° |
| 2026-04-21 19:25 | 54.74679 | -3.40656 | 37473 ft | 474 kts | 155° |
| 2026-04-21 19:26 | 54.68715 | -3.35816 | 37471 ft | 473 kts | 155° |
| 2026-04-21 19:26 | 54.62747 | -3.30986 | 37472 ft | 472 kts | 155° |
| 2026-04-21 19:27 | 54.56826 | -3.26204 | 37469 ft | 472 kts | 155° |
| 2026-04-21 19:27 | 54.50886 | -3.21357 | 37470 ft | 472 kts | 155° |
| 2026-04-21 19:28 | 54.44966 | -3.16424 | 37468 ft | 472 kts | 154° |
| 2026-04-21 19:28 | 54.39082 | -3.11401 | 37464 ft | 472 kts | 154° |
| 2026-04-21 19:29 | 54.33189 | -3.06427 | 37460 ft | 472 kts | 154° |
| 2026-04-21 19:29 | 54.27279 | -3.01487 | 37448 ft | 473 kts | 154° |
| 2026-04-21 19:30 | 54.21343 | -2.96586 | 37436 ft | 473 kts | 155° |
| 2026-04-21 19:30 | 54.15343 | -2.91893 | 37431 ft | 473 kts | 156° |
| 2026-04-21 19:31 | 54.09328 | -2.87342 | 37426 ft | 473 kts | 157° |
| 2026-04-21 19:31 | 54.03267 | -2.82913 | 37417 ft | 474 kts | 158° |
| 2026-04-21 19:32 | 53.97202 | -2.78540 | 37413 ft | 474 kts | 158° |
| 2026-04-21 19:32 | 53.91162 | -2.74169 | 37410 ft | 475 kts | 158° |
| 2026-04-21 19:33 | 53.85060 | -2.69750 | 37409 ft | 475 kts | 158° |
| 2026-04-21 19:33 | 53.78985 | -2.65373 | 37409 ft | 476 kts | 158° |
| 2026-04-21 19:34 | 53.72893 | -2.60988 | 37413 ft | 476 kts | 158° |
| 2026-04-21 19:34 | 53.66786 | -2.56660 | 37416 ft | 477 kts | 158° |
| 2026-04-21 19:35 | 53.57632 | -2.50143 | 37424 ft | 477 kts | 158° |
| 2026-04-21 19:36 | 53.51482 | -2.45820 | 37428 ft | 477 kts | 158° |
| 2026-04-21 19:36 | 53.45378 | -2.41513 | 37431 ft | 477 kts | 158° |
| 2026-04-21 19:37 | 53.39253 | -2.37176 | 37433 ft | 477 kts | 158° |
| 2026-04-21 19:37 | 53.33154 | -2.32956 | 37433 ft | 477 kts | 159° |
| 2026-04-21 19:38 | 53.27004 | -2.28709 | 37433 ft | 477 kts | 158° |
| 2026-04-21 19:38 | 53.21885 | -2.25155 | 37431 ft | 477 kts | 159° |
| 2026-04-21 19:39 | 53.15015 | -2.19314 | 37419 ft | 478 kts | 149° |
| 2026-04-21 19:39 | 53.09447 | -2.13238 | 37407 ft | 479 kts | 146° |
| 2026-04-21 19:40 | 53.03958 | -2.06860 | 37378 ft | 480 kts | 146° |
| 2026-04-21 19:40 | 53.01246 | -2.03663 | 36978 ft | 485 kts | 145° |
| 2026-04-21 19:40 | 52.98488 | -2.00393 | 36493 ft | 487 kts | 145° |
| 2026-04-21 19:40 | 52.95709 | -1.97083 | 35990 ft | 487 kts | 145° |
| 2026-04-21 19:41 | 52.93003 | -1.93849 | 35499 ft | 487 kts | 145° |
| 2026-04-21 19:41 | 52.90251 | -1.90559 | 34998 ft | 487 kts | 146° |
| 2026-04-21 19:41 | 52.87500 | -1.87297 | 34499 ft | 488 kts | 146° |
| 2026-04-21 19:41 | 52.84731 | -1.84021 | 33998 ft | 489 kts | 146° |
| 2026-04-21 19:42 | 52.81962 | -1.80743 | 33498 ft | 490 kts | 146° |
| 2026-04-21 19:42 | 52.79171 | -1.77474 | 32998 ft | 491 kts | 148° |
| 2026-04-21 19:42 | 52.76296 | -1.74440 | 32502 ft | 492 kts | 151° |
| 2026-04-21 19:42 | 52.73338 | -1.71559 | 32005 ft | 493 kts | 153° |
| 2026-04-21 19:43 | 52.70353 | -1.68779 | 31509 ft | 495 kts | 153° |
| 2026-04-21 19:43 | 52.67322 | -1.66044 | 31009 ft | 497 kts | 154° |
| 2026-04-21 19:43 | 52.64246 | -1.63342 | 30505 ft | 499 kts | 154° |
| 2026-04-21 19:43 | 52.61196 | -1.60705 | 30010 ft | 501 kts | 155° |
| 2026-04-21 19:44 | 52.58113 | -1.58041 | 29511 ft | 503 kts | 155° |
| 2026-04-21 19:44 | 52.54981 | -1.55351 | 29006 ft | 504 kts | 155° |
| 2026-04-21 19:44 | 52.51903 | -1.52686 | 28511 ft | 506 kts | 154° |
| 2026-04-21 19:44 | 52.48772 | -1.49929 | 28006 ft | 507 kts | 154° |
| 2026-04-21 19:45 | 52.45814 | -1.47321 | 27530 ft | 508 kts | 154° |
| 2026-04-21 19:45 | 52.42544 | -1.44466 | 27007 ft | 510 kts | 154° |
| 2026-04-21 19:45 | 52.39409 | -1.41748 | 26507 ft | 511 kts | 154° |
| 2026-04-21 19:45 | 52.36255 | -1.39026 | 25997 ft | 512 kts | 154° |
| 2026-04-21 19:46 | 52.33109 | -1.36236 | 25595 ft | 512 kts | 153° |
| 2026-04-21 19:46 | 52.30003 | -1.33384 | 25150 ft | 515 kts | 152° |
| 2026-04-21 19:46 | 52.26966 | -1.30546 | 24666 ft | 494 kts | 152° |
| 2026-04-21 19:46 | 52.24080 | -1.27815 | 24162 ft | 461 kts | 152° |
| 2026-04-21 19:47 | 52.21384 | -1.25253 | 23654 ft | 435 kts | 152° |
| 2026-04-21 19:47 | 52.19672 | -1.23643 | 23315 ft | 421 kts | 152° |
| 2026-04-21 19:47 | 52.16374 | -1.20577 | 22647 ft | 399 kts | 152° |
| 2026-04-21 19:47 | 52.14791 | -1.19117 | 22313 ft | 391 kts | 152° |
| 2026-04-21 19:48 | 52.11696 | -1.16249 | 21644 ft | 379 kts | 152° |
| 2026-04-21 19:48 | 52.10155 | -1.14817 | 21306 ft | 374 kts | 152° |
| 2026-04-21 19:48 | 52.07926 | -1.12753 | 20810 ft | 368 kts | 152° |
| 2026-04-21 19:48 | 52.05703 | -1.10706 | 20308 ft | 363 kts | 151° |
| 2026-04-21 19:49 | 52.03550 | -1.08703 | 19811 ft | 358 kts | 148° |
| 2026-04-21 19:49 | 52.01728 | -1.06006 | 19306 ft | 352 kts | 127° |
| 2026-04-21 19:49 | 52.00604 | -1.02533 | 18813 ft | 345 kts | 107° |
| 2026-04-21 19:49 | 52.00083 | -0.98762 | 18332 ft | 339 kts | 97° |
| 2026-04-21 19:50 | 51.99858 | -0.94986 | 17844 ft | 334 kts | 92° |
| 2026-04-21 19:50 | 51.99756 | -0.91278 | 17352 ft | 330 kts | 90° |
| 2026-04-21 19:50 | 51.99704 | -0.87563 | 16851 ft | 326 kts | 89° |
| 2026-04-21 19:50 | 51.99677 | -0.83928 | 16354 ft | 322 kts | 89° |
| 2026-04-21 19:51 | 51.99660 | -0.80286 | 15850 ft | 319 kts | 89° |
| 2026-04-21 19:51 | 51.99649 | -0.76705 | 15348 ft | 315 kts | 89° |
| 2026-04-21 19:51 | 51.99642 | -0.73214 | 14852 ft | 311 kts | 89° |
| 2026-04-21 19:51 | 51.99636 | -0.69701 | 14348 ft | 307 kts | 89° |
| 2026-04-21 19:52 | 51.99634 | -0.66260 | 13847 ft | 303 kts | 89° |
| 2026-04-21 19:52 | 51.99531 | -0.62904 | 13344 ft | 300 kts | 99° |
| 2026-04-21 19:52 | 51.98917 | -0.59703 | 12856 ft | 293 kts | 111° |
| 2026-04-21 19:52 | 51.97946 | -0.56820 | 12357 ft | 286 kts | 121° |
| 2026-04-21 19:53 | 51.96798 | -0.54226 | 11859 ft | 280 kts | 125° |
| 2026-04-21 19:53 | 51.95606 | -0.51791 | 11362 ft | 274 kts | 127° |
| 2026-04-21 19:53 | 51.94397 | -0.49424 | 10859 ft | 269 kts | 127° |
| 2026-04-21 19:53 | 51.93196 | -0.47123 | 10357 ft | 264 kts | 128° |
| 2026-04-21 19:54 | 51.92025 | -0.44912 | 9859 ft | 260 kts | 128° |
| 2026-04-21 19:54 | 51.90849 | -0.42717 | 9364 ft | 255 kts | 128° |
| 2026-04-21 19:54 | 51.89684 | -0.40565 | 8860 ft | 251 kts | 128° |
| 2026-04-21 19:54 | 51.88531 | -0.38453 | 8357 ft | 248 kts | 128° |
| 2026-04-21 19:55 | 51.87402 | -0.36393 | 7863 ft | 245 kts | 128° |
| 2026-04-21 19:55 | 51.86293 | -0.34382 | 7588 ft | 233 kts | 128° |
| 2026-04-21 19:55 | 51.85227 | -0.32468 | 7327 ft | 222 kts | 128° |
| 2026-04-21 19:55 | 51.84218 | -0.30667 | 7078 ft | 214 kts | 128° |
| 2026-04-21 19:56 | 51.83229 | -0.28910 | 6818 ft | 206 kts | 128° |
| 2026-04-21 19:56 | 51.82276 | -0.27232 | 6567 ft | 201 kts | 128° |
| 2026-04-21 19:56 | 51.81348 | -0.25606 | 6311 ft | 196 kts | 128° |
| 2026-04-21 19:56 | 51.80425 | -0.23994 | 6061 ft | 194 kts | 128° |
| 2026-04-21 19:57 | 51.79517 | -0.22411 | 5810 ft | 192 kts | 128° |
| 2026-04-21 19:57 | 51.78605 | -0.20828 | 5561 ft | 191 kts | 128° |
| 2026-04-21 19:57 | 51.77694 | -0.19255 | 5303 ft | 191 kts | 128° |
| 2026-04-21 19:57 | 51.76790 | -0.17710 | 5064 ft | 190 kts | 128° |
| 2026-04-21 19:58 | 51.75878 | -0.16162 | 4805 ft | 189 kts | 128° |
| 2026-04-21 19:58 | 51.74967 | -0.14627 | 4555 ft | 188 kts | 128° |
| 2026-04-21 19:58 | 51.74104 | -0.13049 | 4293 ft | 185 kts | 118° |
| 2026-04-21 19:58 | 51.73752 | -0.11145 | 4118 ft | 176 kts | 95° |
| 2026-04-21 19:59 | 51.73697 | -0.09209 | 4002 ft | 174 kts | 90° |
| 2026-04-21 19:59 | 51.73709 | -0.07244 | 3832 ft | 174 kts | 88° |
| 2026-04-21 19:59 | 51.73733 | -0.05314 | 3646 ft | 168 kts | 88° |
| 2026-04-21 19:59 | 51.73754 | -0.03484 | 3471 ft | 163 kts | 88° |
| 2026-04-21 20:00 | 51.73785 | -0.01679 | 3281 ft | 159 kts | 85° |
| 2026-04-21 20:00 | 51.74048 | 0.00036 | 3110 ft | 156 kts | 73° |
| 2026-04-21 20:00 | 51.74507 | 0.01628 | 2935 ft | 156 kts | 61° |
| 2026-04-21 20:00 | 51.75127 | 0.03059 | 2811 ft | 156 kts | 54° |
| 2026-04-21 20:01 | 51.75854 | 0.04389 | 2696 ft | 158 kts | 50° |
| 2026-04-21 20:01 | 51.76628 | 0.05647 | 2544 ft | 161 kts | 47° |
| 2026-04-21 20:01 | 51.77441 | 0.06898 | 2368 ft | 159 kts | 46° |
| 2026-04-21 20:01 | 51.78238 | 0.08095 | 2180 ft | 152 kts | 45° |
| 2026-04-21 20:02 | 51.78987 | 0.09214 | 2001 ft | 145 kts | 45° |
| 2026-04-21 20:02 | 51.79712 | 0.10300 | 1862 ft | 138 kts | 45° |
| 2026-04-21 20:02 | 51.80398 | 0.11327 | 1769 ft | 130 kts | 45° |
| 2026-04-21 20:02 | 51.81058 | 0.12316 | 1711 ft | 130 kts | 45° |
| 2026-04-21 20:03 | 51.81718 | 0.13312 | 1612 ft | 131 kts | 43° |
| 2026-04-21 20:03 | 51.82387 | 0.14315 | 1510 ft | 130 kts | 43° |
| 2026-04-21 20:03 | 51.83047 | 0.15302 | 1410 ft | 130 kts | 43° |
| 2026-04-21 20:03 | 51.83713 | 0.16300 | 1300 ft | 130 kts | 43° |
| 2026-04-21 20:04 | 51.84374 | 0.17291 | 1176 ft | 130 kts | 43° |
| 2026-04-21 20:04 | 51.85037 | 0.18287 | 1048 ft | 130 kts | 43° |
| 2026-04-21 20:04 | 51.85702 | 0.19286 | 899 ft | 130 kts | 43° |
| 2026-04-21 20:04 | 51.86357 | 0.20270 | 744 ft | 130 kts | 43° |
| 2026-04-21 20:05 | 51.87022 | 0.21270 | 578 ft | 129 kts | 43° |
| 2026-04-21 20:05 | 51.87668 | 0.22241 | 401 ft | 126 kts | 43° |
| 2026-04-21 20:05 | 51.88260 | 0.23134 | 357 ft | 91 kts | 43° |
| 2026-04-21 20:05 | 51.88579 | 0.23614 | 357 ft | 46 kts | 43° |
| 2026-04-21 20:06 | 51.88769 | 0.23904 | 357 ft | 30 kts | 51° |
| 2026-04-21 20:06 | 51.88847 | 0.24139 | 357 ft | 19 kts | 73° |
| 2026-04-21 20:06 | 51.88876 | 0.24291 | 357 ft | 11 kts | 72° |
| 2026-04-21 20:06 | 51.88895 | 0.24389 | 357 ft | 9 kts | 72° |
| 2026-04-21 20:07 | 51.88895 | 0.24486 | 357 ft | 10 kts | 121° |
| 2026-04-21 20:07 | 51.88902 | 0.24579 | 357 ft | 10 kts | 53° |
| 2026-04-21 20:07 | 51.88955 | 0.24665 | 357 ft | 12 kts | 43° |
| 2026-04-21 20:07 | 51.89024 | 0.24768 | 357 ft | 15 kts | 43° |
| 2026-04-21 20:08 | 51.89105 | 0.24891 | 357 ft | 17 kts | 43° |
| 2026-04-21 20:08 | 51.89196 | 0.25031 | 357 ft | 18 kts | 55° |
| 2026-04-21 20:08 | 51.89268 | 0.25206 | 357 ft | 19 kts | 43° |
| 2026-04-21 20:08 | 51.89372 | 0.25361 | 357 ft | 22 kts | 43° |
| 2026-04-21 20:09 | 51.89396 | 0.25479 | 357 ft | 10 kts | 128° |
| 2026-04-21 20:09 | 51.89355 | 0.25586 | 357 ft | 12 kts | 116° |
| 2026-04-21 20:09 | 51.89296 | 0.25701 | 357 ft | 15 kts | 133° |
| 2026-04-21 20:09 | 51.89230 | 0.25816 | 357 ft | 11 kts | 133° |
| 2026-04-21 20:10 | 51.89216 | 0.25895 | 357 ft | 6 kts | 57° |
| 2026-04-21 20:10 | 51.89235 | 0.25927 | 357 ft | 2 kts | 43° |
| 2026-04-21 20:10 | 51.89245 | 0.25941 | 357 ft | 0 kts | 43° |